Time;durP1;ratioP1;P1;durP2;ratioP2;P2;SDS_P1;SDS_P2;PMS_P1;PMS_P2;Temp;Humidity;BMP_temperature;BMP_pressure;BME280_temperature;BME280_humidity;BME280_pressure;Samples;Min_cycle;Max_cycle;Signal;HPM_P1;HPM_P2
2021/12/12 00:01:49;;;;;;;39.45;20.83;;;4.60;99.90;;;;;;4869480;29;20025;-89
2021/12/12 00:04:18;;;;;;;35.22;20.67;;;4.60;99.90;;;;;;4868777;29;20131;-89
2021/12/12 00:06:52;;;;;;;40.03;21.65;;;4.60;99.90;;;;;;4868610;29;20021;-90
2021/12/12 00:09:25;;;;;;;32.05;18.85;;;4.60;99.90;;;;;;4884793;29;20029;-89
2021/12/12 00:11:51;;;;;;;27.65;15.30;;;4.60;99.90;;;;;;4880308;29;20029;-87
2021/12/12 00:14:27;;;;;;;27.80;17.38;;;4.60;99.90;;;;;;4868750;29;20125;-88
2021/12/12 00:16:54;;;;;;;38.00;18.58;;;4.60;99.90;;;;;;4853555;29;20053;-89
2021/12/12 00:19:22;;;;;;;32.33;18.65;;;4.60;99.90;;;;;;4852508;29;20025;-88
2021/12/12 00:21:51;;;;;;;42.40;18.95;;;4.60;99.90;;;;;;4867840;29;20384;-87
2021/12/12 00:24:17;;;;;;;32.47;18.85;;;4.60;99.90;;;;;;4867205;29;20056;-88
2021/12/12 00:26:46;;;;;;;39.42;18.33;;;4.70;99.90;;;;;;4884430;29;20022;-88
2021/12/12 00:29:14;;;;;;;37.55;18.67;;;4.60;99.90;;;;;;4867579;29;20064;-88
2021/12/12 00:31:40;;;;;;;33.10;17.85;;;4.70;99.90;;;;;;4868259;29;20108;-89
2021/12/12 00:34:06;;;;;;;34.08;17.73;;;4.70;99.90;;;;;;4867934;29;20068;-89
2021/12/12 00:36:34;;;;;;;33.10;17.40;;;4.70;99.90;;;;;;4868086;29;20112;-89
2021/12/12 00:39:07;;;;;;;29.60;15.70;;;4.70;99.90;;;;;;4868515;29;20105;-91
2021/12/12 00:41:53;;;;;;;34.05;16.35;;;4.70;99.90;;;;;;4867980;29;20025;-90
2021/12/12 00:44:19;;;;;;;30.95;15.95;;;4.70;99.90;;;;;;4868112;29;20523;-90
2021/12/12 00:46:46;;;;;;;25.95;15.27;;;4.70;99.90;;;;;;4850643;29;20057;-90
2021/12/12 00:49:13;;;;;;;30.00;14.63;;;4.70;99.90;;;;;;4865747;29;20440;-90
2021/12/12 00:51:42;;;;;;;32.55;15.70;;;4.80;99.90;;;;;;4882529;29;20030;-88
2021/12/12 00:54:10;;;;;;;32.45;15.30;;;4.80;99.90;;;;;;4865512;29;20330;-90
2021/12/12 00:56:38;;;;;;;30.35;15.38;;;4.80;99.90;;;;;;4865893;29;20533;-90
2021/12/12 00:59:05;;;;;;;31.08;15.43;;;4.80;99.90;;;;;;4849848;29;20041;-89
2021/12/12 01:01:37;;;;;;;31.80;14.35;;;4.80;99.90;;;;;;4851509;29;20025;-91
2021/12/12 01:04:08;;;;;;;32.53;13.38;;;4.80;99.90;;;;;;4883020;29;20116;-91
2021/12/12 01:06:35;;;;;;;28.38;12.82;;;4.90;99.90;;;;;;4866664;29;20096;-89
2021/12/12 01:09:08;;;;;;;32.47;13.15;;;4.90;99.90;;;;;;4867386;29;20498;-91
2021/12/12 01:11:38;;;;;;;23.63;12.50;;;4.90;99.90;;;;;;4867269;29;20111;-91
2021/12/12 01:14:07;;;;;;;34.30;12.52;;;4.80;99.90;;;;;;4882085;29;20036;-90
2021/12/12 01:16:38;;;;;;;26.88;11.75;;;4.90;99.90;;;;;;4854216;29;20408;-90
2021/12/12 01:19:18;;;;;;;28.13;11.70;;;4.90;99.90;;;;;;4847724;29;20049;-89
2021/12/12 01:21:48;;;;;;;26.35;12.30;;;4.90;99.90;;;;;;4865698;29;20036;-89
2021/12/12 01:24:37;;;;;;;28.25;12.63;;;5.00;99.90;;;;;;4865726;29;20483;-88
2021/12/12 01:27:05;;;;;;;26.85;12.00;;;4.90;99.90;;;;;;4864529;29;20531;-88
2021/12/12 01:29:31;;;;;;;27.30;11.77;;;4.90;99.90;;;;;;4865273;29;20136;-90
2021/12/12 01:32:02;;;;;;;20.38;11.35;;;4.90;99.90;;;;;;4866072;29;20021;-88
2021/12/12 01:34:30;;;;;;;32.58;12.77;;;4.90;99.90;;;;;;4866324;29;20041;-87
2021/12/12 01:39:33;;;;;;;26.38;11.35;;;4.80;99.90;;;;;;4867574;29;20041;-88
2021/12/12 01:42:05;;;;;;;19.92;10.95;;;4.80;99.90;;;;;;4865985;29;20025;-88
2021/12/12 01:44:59;;;;;;;25.77;10.90;;;4.80;99.90;;;;;;4867100;29;20528;-90
2021/12/12 01:47:33;;;;;;;30.35;11.57;;;4.80;99.90;;;;;;4862915;29;20116;-87
2021/12/12 01:49:59;;;;;;;;;;;4.80;99.90;;;;;;4866438;29;20028;-89
2021/12/12 01:52:28;;;;;;;23.67;10.48;;;4.80;99.90;;;;;;4866590;29;19915;-88
2021/12/12 01:55:00;;;;;;;28.05;11.30;;;4.70;99.90;;;;;;4866658;29;20032;-88
2021/12/12 01:57:39;;;;;;;25.05;10.65;;;4.70;99.90;;;;;;4866561;29;20025;-89
2021/12/12 02:00:18;;;;;;;27.10;11.07;;;4.80;99.90;;;;;;4867147;29;20029;-89
2021/12/12 02:02:45;;;;;;;25.05;11.07;;;4.80;99.90;;;;;;4866429;29;20077;-89
2021/12/12 02:05:14;;;;;;;24.75;11.13;;;4.70;99.90;;;;;;4867764;29;20063;-89
2021/12/12 02:07:44;;;;;;;23.20;10.88;;;4.70;99.90;;;;;;4867552;29;20104;-90
2021/12/12 02:10:21;;;;;;;26.02;11.30;;;4.80;99.90;;;;;;4867545;29;20113;-90
2021/12/12 02:12:48;;;;;;;24.05;10.52;;;4.70;99.90;;;;;;4866006;29;20029;-89
2021/12/12 02:15:16;;;;;;;24.10;12.15;;;4.70;99.90;;;;;;4864451;29;20039;-87
2021/12/12 02:17:46;;;;;;;22.05;11.38;;;4.70;99.90;;;;;;4864644;29;20025;-89
2021/12/12 02:20:29;;;;;;;26.48;12.55;;;4.70;99.90;;;;;;4865453;29;20037;-89
2021/12/12 02:23:05;;;;;;;19.80;10.52;;;4.70;99.90;;;;;;4865055;29;20026;-89
2021/12/12 02:36:40;;;;;;;26.33;11.45;;;4.70;99.90;;;;;;4882254;29;20055;-91
2021/12/12 02:39:15;;;;;;;26.77;11.52;;;4.70;99.90;;;;;;4865589;29;20041;-91
2021/12/12 02:41:43;;;;;;;25.30;11.45;;;4.80;99.90;;;;;;4864964;29;20132;-89
2021/12/12 02:44:10;;;;;;;25.00;11.43;;;4.80;99.90;;;;;;4865504;29;20028;-89
2021/12/12 02:46:37;;;;;;;25.98;11.45;;;4.80;99.90;;;;;;4863585;29;20161;-88
2021/12/12 02:49:22;;;;;;;23.65;12.02;;;4.80;99.90;;;;;;4870157;29;20029;-88
2021/12/12 02:51:48;;;;;;;28.63;13.00;;;4.80;99.90;;;;;;4863341;29;20033;-88
2021/12/12 02:54:14;;;;;;;21.58;10.98;;;4.80;99.90;;;;;;4861267;29;20047;-88
2021/12/12 02:56:46;;;;;;;23.45;11.70;;;4.80;99.90;;;;;;4863972;29;20036;-89
2021/12/12 02:59:15;;;;;;;31.67;14.75;;;4.90;99.90;;;;;;4863059;29;20041;-86
2021/12/12 03:01:45;;;;;;;27.23;12.38;;;4.80;99.90;;;;;;4866809;29;20029;-89
2021/12/12 03:04:11;;;;;;;25.42;12.45;;;4.90;99.90;;;;;;4868425;29;20044;-89
2021/12/12 03:06:39;;;;;;;26.95;12.75;;;4.90;99.90;;;;;;4869634;29;20096;-88
2021/12/12 03:09:19;;;;;;;26.67;12.20;;;4.90;99.90;;;;;;4870579;29;20039;-89
2021/12/12 03:11:46;;;;;;;30.35;12.40;;;4.90;99.90;;;;;;4874888;29;20044;-89
2021/12/12 03:14:12;;;;;;;26.13;11.77;;;5.00;99.90;;;;;;4880675;29;20029;-85
2021/12/12 03:16:38;;;;;;;30.10;14.77;;;4.90;99.90;;;;;;4878343;29;20502;-89
2021/12/12 03:19:05;;;;;;;31.25;13.55;;;5.00;99.90;;;;;;4883141;29;20033;-89
2021/12/12 03:21:34;;;;;;;35.30;14.23;;;5.00;99.90;;;;;;4904967;29;20010;-89
2021/12/12 03:24:08;;;;;;;31.60;13.90;;;5.00;99.90;;;;;;4890272;29;20009;-87
2021/12/12 03:26:36;;;;;;;27.95;13.40;;;5.00;99.90;;;;;;4905854;29;20017;-88
2021/12/12 03:29:04;;;;;;;28.05;13.88;;;5.00;99.90;;;;;;4889723;29;20025;-88
2021/12/12 03:31:34;;;;;;;27.50;12.13;;;5.00;99.90;;;;;;4889973;29;20017;-87
2021/12/12 03:34:03;;;;;;;26.65;13.75;;;5.00;99.90;;;;;;4890068;29;20017;-88
2021/12/12 03:36:31;;;;;;;32.47;13.98;;;5.00;99.90;;;;;;4881904;29;20033;-88
2021/12/12 03:39:09;;;;;;;30.02;13.55;;;5.10;99.90;;;;;;4885916;29;20029;-88
2021/12/12 03:41:36;;;;;;;25.15;12.68;;;5.10;99.90;;;;;;4887306;29;20040;-88
2021/12/12 03:44:06;;;;;;;25.27;13.50;;;5.10;99.90;;;;;;4870905;29;20465;-87
2021/12/12 03:46:34;;;;;;;30.67;13.70;;;5.10;99.90;;;;;;4872516;29;20029;-86
2021/12/12 03:49:00;;;;;;;30.50;15.63;;;5.10;99.90;;;;;;4869217;29;20025;-85
2021/12/12 03:51:35;;;;;;;26.77;15.60;;;5.10;99.90;;;;;;4868158;29;20028;-89
2021/12/12 03:54:01;;;;;;;26.17;13.52;;;5.10;99.90;;;;;;4883856;29;20040;-87
2021/12/12 03:56:28;;;;;;;22.17;13.35;;;5.20;99.90;;;;;;4867683;29;20017;-88
2021/12/12 03:58:55;;;;;;;30.10;14.75;;;5.10;99.90;;;;;;4867703;29;20604;-86
2021/12/12 04:01:23;;;;;;;27.95;15.60;;;5.20;99.90;;;;;;4867336;29;20025;-86
2021/12/12 04:03:52;;;;;;;30.15;15.68;;;5.20;99.90;;;;;;4867646;29;20605;-86
2021/12/12 04:06:23;;;;;;;23.27;12.93;;;5.20;99.90;;;;;;4867067;29;20403;-87
2021/12/12 04:08:50;;;;;;;28.13;15.80;;;5.20;99.90;;;;;;4867330;29;20056;-86
2021/12/12 04:11:22;;;;;;;21.38;13.60;;;5.20;99.90;;;;;;4865813;29;20032;-86
2021/12/12 04:13:51;;;;;;;26.13;15.15;;;5.20;99.90;;;;;;4866505;29;20515;-88
2021/12/12 04:16:18;;;;;;;31.23;16.90;;;5.20;99.90;;;;;;4866737;29;20036;-87
2021/12/12 04:18:44;;;;;;;24.65;14.60;;;5.30;99.90;;;;;;4866933;29;21879;-86
2021/12/12 04:21:12;;;;;;;26.38;14.73;;;5.20;99.90;;;;;;4866916;29;20056;-85
2021/12/12 04:23:38;;;;;;;28.52;14.70;;;5.30;99.90;;;;;;4865862;29;20028;-85
2021/12/12 04:26:22;;;;;;;20.83;14.27;;;5.30;99.90;;;;;;4866367;29;20057;-87
2021/12/12 04:29:13;;;;;;;22.40;15.23;;;5.30;99.90;;;;;;4882837;29;20052;-86
2021/12/12 04:31:42;;;;;;;25.13;15.23;;;5.30;99.90;;;;;;4856365;29;20582;-87
2021/12/12 04:34:09;;;;;;;18.73;14.00;;;5.30;99.90;;;;;;4870973;29;20119;-86
2021/12/12 04:36:41;;;;;;;20.25;13.45;;;5.30;99.90;;;;;;4871102;29;20483;-86
2021/12/12 04:39:08;;;;;;;23.73;15.68;;;5.30;99.90;;;;;;4868530;29;20037;-86
2021/12/12 04:41:34;;;;;;;22.92;14.13;;;5.30;99.90;;;;;;4873482;29;20114;-87
2021/12/12 04:44:00;;;;;;;23.77;15.00;;;5.40;99.90;;;;;;4879032;29;20483;-87
2021/12/12 04:49:54;;;;;;;30.05;17.35;;;5.30;99.90;;;;;;4878032;29;20025;-86
2021/12/12 04:52:03;;;;;;;26.60;16.25;;;5.40;99.90;;;;;;4895632;29;20101;-86
2021/12/12 04:54:36;;;;;;;31.42;18.00;;;5.40;99.90;;;;;;4879174;29;20454;-85
2021/12/12 04:57:04;;;;;;;24.92;15.15;;;5.40;99.90;;;;;;4895583;29;20149;-87
2021/12/12 04:59:44;;;;;;;28.08;17.73;;;5.40;99.90;;;;;;4877485;29;20029;-86
2021/12/12 05:02:34;;;;;;;26.38;16.67;;;5.50;99.90;;;;;;4878103;29;20041;-86
2021/12/12 05:05:09;;;;;;;27.40;17.17;;;5.50;99.90;;;;;;4879613;29;20121;-87
2021/12/12 05:07:53;;;;;;;26.70;17.05;;;5.50;99.90;;;;;;4881737;29;20017;-87
2021/12/12 05:10:41;;;;;;;22.77;14.93;;;5.50;99.90;;;;;;4876776;29;20040;-87
2021/12/12 05:13:30;;;;;;;31.42;19.95;;;5.50;99.90;;;;;;4882846;29;20103;-88
2021/12/12 05:16:09;;;;;;;32.38;19.52;;;5.50;99.90;;;;;;4867339;29;20040;-88
2021/12/12 05:18:49;;;;;;;27.27;16.90;;;5.50;99.90;;;;;;4866870;29;20060;-87
2021/12/12 05:21:23;;;;;;;27.67;18.15;;;5.60;99.90;;;;;;4867736;29;20055;-87
2021/12/12 05:23:51;;;;;;;22.65;16.05;;;5.60;99.90;;;;;;4865543;29;20075;-86
2021/12/12 05:26:20;;;;;;;24.75;17.52;;;5.60;99.90;;;;;;4866479;29;20029;-87
2021/12/12 05:28:53;;;;;;;28.20;17.98;;;5.70;99.90;;;;;;4882512;29;20140;-87
2021/12/12 05:31:21;;;;;;;23.30;16.60;;;5.70;99.90;;;;;;4865357;29;20048;-86
2021/12/12 05:33:51;;;;;;;26.33;18.63;;;5.70;99.90;;;;;;4864714;29;20068;-86
2021/12/12 05:36:18;;;;;;;26.98;18.73;;;5.70;99.90;;;;;;4882567;29;20123;-87
2021/12/12 05:38:45;;;;;;;31.58;19.85;;;5.70;99.90;;;;;;4866220;29;20029;-87
2021/12/12 05:41:11;;;;;;;29.05;19.23;;;5.70;99.90;;;;;;4866000;29;20045;-88
2021/12/12 05:43:37;;;;;;;27.42;17.50;;;5.70;99.90;;;;;;4866011;29;20099;-87
2021/12/12 05:46:04;;;;;;;24.52;15.63;;;5.70;99.90;;;;;;4865710;29;20029;-87
2021/12/12 05:48:31;;;;;;;24.98;17.17;;;5.80;99.90;;;;;;4865898;29;20021;-87
2021/12/12 05:50:56;;;;;;;23.00;16.25;;;5.80;99.90;;;;;;4866104;29;20049;-88
2021/12/12 05:53:22;;;;;;;24.65;19.02;;;5.80;99.90;;;;;;4882317;29;20028;-87
2021/12/12 05:55:49;;;;;;;30.48;20.15;;;5.80;99.90;;;;;;4868119;29;20077;-86
2021/12/12 05:58:18;;;;;;;31.13;20.45;;;5.80;99.90;;;;;;4870692;29;20021;-85
2021/12/12 06:00:49;;;;;;;25.73;18.33;;;5.90;99.90;;;;;;4870499;29;20033;-86
2021/12/12 06:03:24;;;;;;;25.77;18.67;;;5.90;99.90;;;;;;4885113;29;20124;-88
2021/12/12 06:05:52;;;;;;;21.25;17.00;;;5.90;99.90;;;;;;4867976;29;20044;-87
2021/12/12 06:08:21;;;;;;;26.58;18.27;;;5.90;99.90;;;;;;4866422;29;20021;-86
2021/12/12 06:10:47;;;;;;;23.70;17.77;;;5.90;99.90;;;;;;4865993;29;20117;-87
2021/12/12 06:13:17;;;;;;;21.30;17.42;;;6.00;99.90;;;;;;4865010;29;20025;-87
2021/12/12 06:15:45;;;;;;;23.20;18.17;;;6.00;99.90;;;;;;4865838;29;20060;-85
2021/12/12 06:18:13;;;;;;;23.10;18.05;;;6.00;99.90;;;;;;4866128;29;20021;-86
2021/12/12 06:20:40;;;;;;;26.13;19.63;;;6.00;99.90;;;;;;4865094;29;20045;-87
2021/12/12 06:23:08;;;;;;;28.95;21.60;;;6.00;99.90;;;;;;4865055;29;20032;-86
2021/12/12 06:25:36;;;;;;;25.55;20.25;;;6.00;99.90;;;;;;4866236;29;20033;-86
2021/12/12 06:28:10;;;;;;;24.60;19.25;;;6.00;99.90;;;;;;4865677;29;20056;-86
2021/12/12 06:30:37;;;;;;;26.02;19.15;;;6.10;99.90;;;;;;4866226;29;20026;-87
2021/12/12 06:33:04;;;;;;;27.63;19.90;;;6.10;99.90;;;;;;4865652;29;20035;-86
2021/12/12 06:35:30;;;;;;;24.85;20.10;;;6.00;99.90;;;;;;4868031;29;20041;-85
2021/12/12 06:38:11;;;;;;;26.45;18.83;;;6.10;99.90;;;;;;4869642;29;20081;-86
2021/12/12 06:40:38;;;;;;;26.75;18.08;;;6.10;99.90;;;;;;4886188;29;20045;-87
2021/12/12 06:43:07;;;;;;;23.27;18.35;;;6.10;99.90;;;;;;4868938;29;20021;-87
2021/12/12 06:45:35;;;;;;;25.10;19.15;;;6.10;99.90;;;;;;4868479;29;20077;-86
2021/12/12 06:48:04;;;;;;;24.10;18.33;;;6.10;99.90;;;;;;4884609;29;20085;-85
2021/12/12 06:50:30;;;;;;;24.00;18.08;;;6.10;99.90;;;;;;4852470;29;20035;-85
2021/12/12 06:52:56;;;;;;;23.90;16.70;;;6.10;99.90;;;;;;4865385;29;20037;-86
2021/12/12 06:55:22;;;;;;;22.75;17.67;;;6.10;99.90;;;;;;4868192;29;20025;-86
2021/12/12 06:57:49;;;;;;;21.60;15.82;;;6.20;99.90;;;;;;4885329;29;20081;-87
2021/12/12 07:00:20;;;;;;;26.98;18.70;;;6.20;99.90;;;;;;4868389;29;20052;-87
2021/12/12 07:02:47;;;;;;;30.00;19.50;;;6.20;99.90;;;;;;4869247;29;20029;-88
2021/12/12 07:05:23;;;;;;;22.35;17.15;;;6.30;99.90;;;;;;4854368;29;20045;-88
2021/12/12 07:07:50;;;;;;;23.40;16.67;;;6.30;99.90;;;;;;4869492;29;20021;-87
2021/12/12 07:10:18;;;;;;;22.55;16.83;;;6.30;99.90;;;;;;4866749;29;20033;-84
2021/12/12 07:12:46;;;;;;;24.88;16.88;;;6.30;99.90;;;;;;4866479;29;20033;-87
2021/12/12 07:15:16;;;;;;;27.08;18.55;;;6.30;99.90;;;;;;4884678;29;20025;-89
2021/12/12 07:17:42;;;;;;;27.13;18.20;;;6.30;99.90;;;;;;4868173;29;20056;-88
2021/12/12 07:20:11;;;;;;;29.25;18.50;;;6.30;99.90;;;;;;4884943;29;20062;-87
2021/12/12 07:22:37;;;;;;;29.92;20.17;;;6.30;99.90;;;;;;4884687;29;20084;-86
2021/12/12 07:25:05;;;;;;;30.55;19.55;;;6.40;99.90;;;;;;4866726;29;20124;-87
2021/12/12 07:27:31;;;;;;;28.38;18.88;;;6.40;99.90;;;;;;4865011;29;20029;-86
2021/12/12 07:29:58;;;;;;;30.83;19.80;;;6.40;99.90;;;;;;4882358;29;20048;-86
2021/12/12 07:32:27;;;;;;;29.92;19.45;;;6.40;99.90;;;;;;4865741;29;20029;-87
2021/12/12 07:34:54;;;;;;;30.48;20.20;;;6.50;99.90;;;;;;4883291;29;20049;-87
2021/12/12 07:37:20;;;;;;;32.15;19.98;;;6.50;99.90;;;;;;4866309;29;20519;-88
2021/12/12 07:39:47;;;;;;;29.50;18.27;;;6.50;99.90;;;;;;4865926;29;20041;-87
2021/12/12 07:42:16;;;;;;;28.08;18.58;;;6.50;99.90;;;;;;4867169;29;20036;-87
2021/12/12 07:44:43;;;;;;;29.10;18.77;;;6.50;99.90;;;;;;4868243;29;20029;-87
2021/12/12 07:47:12;;;;;;;27.98;17.02;;;6.50;99.90;;;;;;4867443;29;20059;-88
2021/12/12 07:49:45;;;;;;;26.65;18.20;;;6.50;99.90;;;;;;4867209;29;20041;-89
2021/12/12 07:52:16;;;;;;;25.05;15.75;;;6.60;99.90;;;;;;4867221;29;20033;-87
2021/12/12 07:54:43;;;;;;;30.08;18.45;;;6.60;99.90;;;;;;4866762;29;20032;-89
2021/12/12 07:57:10;;;;;;;32.92;19.73;;;6.60;99.90;;;;;;4883733;29;20124;-86
2021/12/12 07:59:37;;;;;;;32.60;19.50;;;6.60;99.90;;;;;;4866556;29;20507;-89
2021/12/12 08:02:05;;;;;;;32.40;19.48;;;6.70;99.90;;;;;;4867995;29;20025;-88
2021/12/12 08:04:32;;;;;;;30.05;19.25;;;6.70;99.90;;;;;;4869761;29;20033;-87
2021/12/12 08:07:00;;;;;;;35.95;20.17;;;6.70;99.90;;;;;;4869633;29;20032;-88
2021/12/12 08:09:28;;;;;;;36.67;20.20;;;6.70;99.90;;;;;;4869017;29;20027;-88
2021/12/12 08:11:54;;;;;;;31.35;19.83;;;6.80;99.90;;;;;;4867348;29;20025;-87
2021/12/12 08:14:24;;;;;;;31.33;18.98;;;6.80;99.90;;;;;;4866092;29;20029;-88
2021/12/12 08:16:51;;;;;;;38.65;21.17;;;6.80;99.90;;;;;;4865255;29;20026;-88
2021/12/12 08:19:18;;;;;;;32.35;18.63;;;6.80;99.90;;;;;;4865730;29;20041;-89
2021/12/12 08:21:46;;;;;;;32.55;18.42;;;6.80;99.90;;;;;;4864263;29;20025;-86
2021/12/12 08:24:13;;;;;;;29.40;18.77;;;6.90;99.90;;;;;;4865149;29;20088;-86
2021/12/12 08:26:41;;;;;;;42.67;20.17;;;6.90;99.90;;;;;;4882069;29;20589;-88
2021/12/12 08:29:09;;;;;;;34.60;19.15;;;6.90;99.90;;;;;;4866118;29;20135;-87
2021/12/12 08:31:36;;;;;;;32.50;19.70;;;6.90;99.90;;;;;;4865557;29;20100;-90
2021/12/12 08:34:07;;;;;;;45.30;24.10;;;6.90;99.90;;;;;;4865832;29;20045;-90
2021/12/12 08:36:39;;;;;;;37.30;21.90;;;7.00;99.90;;;;;;4882931;29;20032;-85
2021/12/12 08:39:07;;;;;;;40.05;23.20;;;7.00;99.90;;;;;;4864436;29;20040;-86
2021/12/12 08:41:33;;;;;;;38.30;22.35;;;7.00;99.90;;;;;;4862532;29;20022;-85
2021/12/12 08:43:59;;;;;;;41.05;21.63;;;7.00;99.90;;;;;;4865544;29;20039;-86
2021/12/12 08:46:25;;;;;;;35.22;19.95;;;7.00;99.90;;;;;;4863273;29;20480;-84
2021/12/12 08:48:52;;;;;;;39.20;21.25;;;7.00;99.90;;;;;;4863560;29;20369;-86
2021/12/12 08:51:34;;;;;;;36.58;20.58;;;7.10;99.90;;;;;;4863288;29;20059;-83
2021/12/12 08:54:12;;;;;;;44.20;22.60;;;7.10;99.90;;;;;;4860276;29;20057;-85
2021/12/12 08:56:44;;;;;;;39.92;21.30;;;7.10;99.90;;;;;;4862319;29;20116;-85
2021/12/12 08:59:20;;;;;;;40.15;20.73;;;7.10;99.90;;;;;;4861184;29;20033;-83
2021/12/12 09:01:49;;;;;;;37.92;20.08;;;7.20;99.90;;;;;;4863113;29;20025;-83
2021/12/12 09:04:15;;;;;;;39.20;23.48;;;7.20;99.90;;;;;;4862765;29;20073;-84
2021/12/12 09:07:16;;;;;;;46.35;23.08;;;7.20;99.90;;;;;;4862875;29;20025;-84
2021/12/12 09:09:58;;;;;;;38.78;21.67;;;7.20;99.90;;;;;;4850367;29;20021;-84
2021/12/12 09:12:40;;;;;;;44.05;22.65;;;7.20;99.90;;;;;;4864016;29;20385;-83
2021/12/12 09:15:31;;;;;;;36.45;19.70;;;7.30;99.90;;;;;;4863046;29;20561;-83
2021/12/12 09:18:16;;;;;;;49.25;25.30;;;7.30;99.90;;;;;;4877344;29;20052;-84
2021/12/12 09:20:58;;;;;;;40.90;21.60;;;7.30;99.90;;;;;;4862645;29;20128;-82
2021/12/12 09:23:32;;;;;;;37.60;22.38;;;7.40;99.90;;;;;;4862812;29;20021;-82
2021/12/12 09:26:08;;;;;;;38.00;22.73;;;7.40;99.90;;;;;;4879421;29;20025;-83
2021/12/12 09:28:47;;;;;;;41.55;22.30;;;7.40;99.90;;;;;;4879307;29;20109;-83
2021/12/12 09:31:28;;;;;;;41.90;22.20;;;7.40;99.90;;;;;;4863652;29;20025;-84
2021/12/12 09:34:12;;;;;;;39.47;23.23;;;7.50;99.90;;;;;;4864180;29;20100;-84
2021/12/12 09:36:51;;;;;;;42.95;23.70;;;7.50;99.90;;;;;;4864475;29;20028;-83
2021/12/12 09:39:25;;;;;;;45.63;25.30;;;7.50;99.90;;;;;;4880685;29;20059;-83
2021/12/12 09:42:22;;;;;;;46.83;24.63;;;7.60;99.90;;;;;;4865102;29;20096;-83
2021/12/12 09:45:03;;;;;;;47.20;25.10;;;7.60;99.90;;;;;;4882909;29;20036;-83
2021/12/12 09:51:16;;;;;;;51.40;26.63;;;7.60;99.90;;;;;;4881370;29;20476;-85
2021/12/12 09:53:52;;;;;;;48.75;28.40;;;7.70;99.90;;;;;;4865883;29;20029;-83
2021/12/12 09:56:49;;;;;;;50.13;24.98;;;7.70;99.90;;;;;;4880004;29;20506;-85
2021/12/12 09:59:31;;;;;;;49.08;25.52;;;7.70;99.90;;;;;;4880360;29;20399;-84
2021/12/12 10:02:09;;;;;;;49.28;25.70;;;7.70;99.90;;;;;;4864278;29;20025;-85
2021/12/12 10:05:01;;;;;;;46.13;25.17;;;7.80;99.90;;;;;;4880718;29;20041;-84
2021/12/12 10:08:04;;;;;;;49.58;27.35;;;7.80;99.90;;;;;;4863771;29;20383;-83
2021/12/12 10:11:01;;;;;;;46.77;27.17;;;7.90;99.90;;;;;;4866213;29;20178;-84
2021/12/12 10:13:44;;;;;;;47.90;25.77;;;7.90;99.90;;;;;;4857732;29;20040;-84
2021/12/12 10:16:34;;;;;;;42.63;24.35;;;8.00;99.90;;;;;;4884415;29;20047;-85
2021/12/12 10:19:31;;;;;;;40.83;23.45;;;8.00;99.90;;;;;;4867075;29;20040;-83
2021/12/12 10:22:27;;;;;;;39.47;23.15;;;8.00;99.90;;;;;;4867265;29;20092;-83
2021/12/12 10:25:09;;;;;;;39.30;22.20;;;8.00;99.90;;;;;;4868084;29;20066;-84
2021/12/12 10:27:55;;;;;;;41.40;23.45;;;8.10;99.90;;;;;;4867484;29;20456;-83
2021/12/12 10:30:30;;;;;;;41.08;22.88;;;8.10;99.90;;;;;;4867788;29;20037;-83
2021/12/12 10:33:14;;;;;;;32.38;19.73;;;8.10;99.90;;;;;;4867927;29;20025;-84
2021/12/12 10:35:46;;;;;;;35.00;21.65;;;8.10;99.90;;;;;;4867441;29;20403;-85
2021/12/12 10:38:17;;;;;;;34.50;21.10;;;8.10;99.90;;;;;;4867741;29;20025;-84
2021/12/12 10:41:05;;;;;;;33.17;22.02;;;8.10;99.90;;;;;;4868074;29;20036;-84
2021/12/12 10:43:36;;;;;;;35.17;20.60;;;8.20;99.90;;;;;;4867487;29;20036;-85
2021/12/12 10:46:13;;;;;;;36.55;20.40;;;8.20;99.90;;;;;;4867844;29;20120;-85
2021/12/12 10:49:01;;;;;;;27.42;18.67;;;8.20;99.90;;;;;;4867637;29;20089;-84
2021/12/12 10:51:34;;;;;;;27.17;18.38;;;8.20;99.90;;;;;;4852294;29;20032;-84
2021/12/12 10:54:09;;;;;;;26.73;18.17;;;8.30;99.90;;;;;;4867090;29;20072;-85
2021/12/12 10:56:57;;;;;;;28.88;18.73;;;8.30;99.90;;;;;;4866794;29;20025;-85
2021/12/12 10:59:37;;;;;;;25.90;16.42;;;8.30;99.90;;;;;;4866069;29;20106;-84
2021/12/12 11:02:11;;;;;;;31.30;19.33;;;8.30;99.90;;;;;;4883929;29;20036;-84
2021/12/12 11:04:53;;;;;;;28.00;18.08;;;8.30;99.90;;;;;;4866604;29;20048;-84
2021/12/12 11:07:26;;;;;;;27.92;18.08;;;8.30;99.90;;;;;;4866873;29;20410;-84
2021/12/12 11:10:17;;;;;;;31.10;18.73;;;8.30;99.90;;;;;;4867330;29;20067;-83
2021/12/12 11:12:45;;;;;;;29.67;19.38;;;8.30;99.90;;;;;;4852300;29;20037;-84
2021/12/12 11:15:13;;;;;;;29.08;18.17;;;8.40;99.90;;;;;;4868745;29;20033;-84
2021/12/12 11:17:54;;;;;;;27.65;18.67;;;8.40;99.90;;;;;;4867696;29;20081;-83
2021/12/12 11:20:26;;;;;;;30.67;18.70;;;8.40;99.90;;;;;;4866403;29;20041;-85
2021/12/12 11:22:57;;;;;;;29.60;17.88;;;8.50;99.90;;;;;;4882526;29;20025;-84
2021/12/12 11:25:42;;;;;;;25.27;17.10;;;8.50;99.90;;;;;;4865021;29;20121;-83
2021/12/12 11:28:37;;;;;;;28.83;17.80;;;8.50;99.90;;;;;;4864565;29;20081;-85
2021/12/12 11:31:12;;;;;;;24.58;15.82;;;8.50;99.90;;;;;;4860567;29;20049;-83
2021/12/12 11:33:40;;;;;;;23.08;16.17;;;8.50;99.90;;;;;;4864645;29;20448;-83
2021/12/12 11:36:12;;;;;;;24.63;15.68;;;8.60;99.90;;;;;;4864404;29;20025;-84
2021/12/12 11:39:01;;;;;;;28.30;17.88;;;8.60;99.90;;;;;;4864776;29;20029;-84
2021/12/12 11:42:02;;;;;;;26.65;17.80;;;8.60;99.90;;;;;;4848589;29;20060;-84
2021/12/12 11:44:59;;;;;;;23.98;16.08;;;8.60;99.90;;;;;;4857744;29;20060;-85
2021/12/12 11:47:43;;;;;;;21.23;13.40;;;8.60;99.90;;;;;;4837767;29;20037;-85
2021/12/12 11:50:19;;;;;;;25.23;17.80;;;8.60;99.90;;;;;;4863318;29;20115;-84
2021/12/12 11:53:14;;;;;;;26.45;17.05;;;8.70;99.90;;;;;;4881964;29;20025;-83
2021/12/12 11:55:49;;;;;;;24.98;17.10;;;8.70;99.90;;;;;;4865891;29;20080;-84
2021/12/12 11:58:36;;;;;;;26.95;17.38;;;8.80;99.90;;;;;;4867040;29;20029;-83
2021/12/12 12:01:21;;;;;;;24.08;16.48;;;8.80;99.90;;;;;;4868546;29;20048;-85
2021/12/12 12:04:11;;;;;;;23.52;16.30;;;8.80;99.90;;;;;;4868903;29;20396;-84
2021/12/12 12:06:55;;;;;;;27.70;17.20;;;8.80;99.90;;;;;;4869480;29;20021;-84
2021/12/12 12:09:58;;;;;;;28.02;18.23;;;8.80;99.90;;;;;;4890680;29;20029;-84
2021/12/12 12:13:01;;;;;;;23.67;16.85;;;8.80;99.90;;;;;;4894597;29;20365;-84
2021/12/12 12:15:58;;;;;;;24.60;18.27;;;8.90;99.90;;;;;;4894399;29;20029;-86
2021/12/12 12:18:30;;;;;;;26.13;17.33;;;8.90;99.90;;;;;;4883109;29;20029;-84
2021/12/12 12:21:12;;;;;;;22.85;16.15;;;8.90;99.90;;;;;;4904012;29;20036;-84
2021/12/12 12:26:51;;;;;;;25.23;17.30;;;8.90;99.90;;;;;;4900509;29;20033;-83
2021/12/12 12:29:32;;;;;;;26.20;17.83;;;9.00;99.90;;;;;;4884764;29;20053;-84
2021/12/12 12:32:35;;;;;;;25.52;17.45;;;9.00;99.90;;;;;;4902301;29;20040;-84
2021/12/12 12:35:19;;;;;;;24.83;16.60;;;9.00;99.90;;;;;;4891160;29;20048;-83
2021/12/12 12:38:15;;;;;;;27.52;18.90;;;9.00;99.90;;;;;;4882994;29;20029;-84
2021/12/12 12:41:03;;;;;;;27.33;18.65;;;9.00;99.90;;;;;;4847889;29;20072;-83
2021/12/12 12:44:07;;;;;;;29.30;19.33;;;9.00;99.90;;;;;;4878440;29;20029;-83
2021/12/12 12:47:10;;;;;;;26.92;19.58;;;9.10;99.90;;;;;;4874816;29;20005;-83
2021/12/12 12:50:14;;;;;;;27.63;19.02;;;9.10;99.90;;;;;;4890368;29;20033;-83
2021/12/12 12:52:55;;;;;;;26.20;19.47;;;9.10;99.90;;;;;;4856663;29;20093;-83
2021/12/12 12:56:11;;;;;;;30.27;20.48;;;9.10;99.90;;;;;;4879471;29;20313;-83
2021/12/12 12:59:36;;;;;;;30.23;20.65;;;9.10;99.90;;;;;;4823287;29;20476;-83
2021/12/12 13:02:12;;;;;;;29.90;20.25;;;9.10;99.90;;;;;;4822390;29;20104;-83
2021/12/12 13:04:56;;;;;;;29.55;19.98;;;9.20;99.90;;;;;;4859521;29;20056;-82
2021/12/12 13:07:40;;;;;;;23.63;16.60;;;9.20;99.90;;;;;;4859768;29;20049;-82
2021/12/12 13:10:08;;;;;;;31.85;21.10;;;9.20;99.90;;;;;;4861053;29;20071;-82
2021/12/12 13:12:37;;;;;;;27.67;18.50;;;9.20;99.90;;;;;;4862856;29;20041;-83
2021/12/12 13:15:10;;;;;;;25.17;17.42;;;9.20;99.90;;;;;;4878226;29;20021;-82
2021/12/12 13:17:59;;;;;;;26.42;18.17;;;9.20;99.90;;;;;;4878088;29;20396;-83
2021/12/12 13:20:34;;;;;;;27.55;20.20;;;9.30;99.90;;;;;;4878240;29;20075;-83
2021/12/12 13:23:33;;;;;;;27.77;19.88;;;9.30;99.90;;;;;;4877421;29;20085;-83
2021/12/12 13:26:05;;;;;;;24.83;18.25;;;9.30;99.90;;;;;;4877805;29;20029;-81
2021/12/12 13:29:03;;;;;;;26.77;18.40;;;9.30;99.90;;;;;;4860310;29;20048;-82
2021/12/12 13:31:40;;;;;;;28.00;19.75;;;9.30;99.90;;;;;;4869434;29;20037;-83
2021/12/12 13:34:41;;;;;;;25.85;19.63;;;9.30;99.90;;;;;;4860556;29;20393;-82
2021/12/12 13:37:23;;;;;;;28.45;19.60;;;9.30;99.90;;;;;;4858589;29;20067;-84
2021/12/12 13:39:58;;;;;;;26.63;19.38;;;9.30;99.90;;;;;;4860628;29;20040;-83